Maersk Lota — 9V9777 — position and weather

sailwx.info

Track history (hours):
 
Tides and Currents Weather Stations Pressure Air Temp Water Temp Dewpoint Dewpoint Depression Visibility Wind Speed Wind Dir Waves Ship Positions

Maersk Lota

Last reported at 2017-Sep-14 12:13 UTC. Time now 2017-Sep-23 14:54 UTC.
Position S 26°52' W 048°30'.
Warning: this ship's position is 9 days out of date.

Length 300 m; draft 10.1 m.

Type: Ship (hazmat cat A). MMSI: 566383000.

Date/timePositionNaut miles runAvg speedWind from/ knotsBaromVisibWave heightAir tempDewpointWater temp
2017-Sep-14 12:13S 26°52' W 048°30'2 5.9
2017-Sep-14 11:49S 26°50' W 048°28'4 9.8
2017-Sep-14 11:22S 26°46' W 048°27'6511.4
2017-Sep-14 05:42S 25°42' W 048°15'310.5
2017-Sep-14 05:22S 25°38' W 048°16'512.5
2017-Sep-14 05:00S 25°35' W 048°19'101 2.9
2017-Sep-12 17:49S 24°39' W 046°47'3 9.9
2017-Sep-12 17:29S 24°37' W 046°44'6 9.9
2017-Sep-12 16:55S 24°33' W 046°39'410.1
2017-Sep-12 16:30S 24°31' W 046°36'510.1
2017-Sep-12 16:00S 24°26' W 046°33'510.4
2017-Sep-12 15:30S 24°22' W 046°31'510.6
2017-Sep-12 15:00S 24°17' W 046°28'510.6
2017-Sep-12 14:30S 24°12' W 046°26'510.7
2017-Sep-12 14:00S 24°07' W 046°24'611.1
2017-Sep-12 13:30S 24°02' W 046°21'4 8.2
2017-Sep-12 13:00S 23°59' W 046°18'5 0.9
2017-Sep-12 07:00S 23°55' W 046°21'0 0.0
2017-Sep-11 16:40S 23°55' W 046°21'0 2.3
2017-Sep-11 16:30S 23°55' W 046°21'3 7.0
2017-Sep-11 16:00S 23°58' W 046°18'3 6.3
2017-Sep-11 15:30S 24°00' W 046°20'510.2
2017-Sep-11 15:00S 24°05' W 046°22'612.0
2017-Sep-11 14:30S 24°11' W 046°21'510.4
2017-Sep-11 14:00S 24°15' W 046°19'1020.3
2017-Sep-11 13:30S 24°15' W 046°08'1121.3
2017-Sep-11 13:00S 24°16' W 045°56'1121.3
2017-Sep-11 12:30S 24°16' W 045°44'1221.5
2017-Sep-11 11:58S 24°14' W 045°31'1022.1
2017-Sep-11 11:30S 24°11' W 045°21'1122.4
2017-Sep-11 11:00S 24°08' W 045°09'1122.1
2017-Sep-11 10:30S 24°04' W 044°58'1122.4
2017-Sep-11 10:00S 24°01' W 044°46'9222.8
2017-Sep-11 06:00S 23°30' W 043°12'   050 / 301018.210.8 18.814.923.0
2017-Sep-08 06:00S 01°48' W 029°42'62426.0 130 / 281011.210.8 26.522.130.0
2017-Sep-07 06:00N 05°18' W 022°06'42117.5 170 / 221010.910.8 27.023.432.0
2017-Sep-06 06:00N 12°18' W 022°36'49320.5 070 / 41012.410.8 28.524.232.0
2017-Sep-05 06:00N 19°42' W 018°54'12220.3 010 / 221012.810.8 24.822.931.0
2017-Sep-05 00:00N 21°30' W 017°54'   360 / 161015.4 5.4 23.021.527.0
Track history (hours):
 
Tides and Currents Weather Stations Pressure Air Temp Water Temp Dewpoint Dewpoint Depression Visibility Wind Speed Wind Dir Waves Ship Positions

Maersk Lota

Last reported at 2017-Sep-14 12:13 UTC. Time now 2017-Sep-23 14:54 UTC.
Position S 26°52' W 048°30'.
Warning: this ship's position is 9 days out of date.

Length 300 m; draft 10.1 m.

Type: Ship (hazmat cat A). MMSI: 566383000.

Date/timePositionNaut miles runAvg speedWind from/ knotsBaromVisibWave heightAir tempDewpointWater temp
2017-Sep-14 12:13S 26°52' W 048°30'2 5.9
2017-Sep-14 11:49S 26°50' W 048°28'4 9.8
2017-Sep-14 11:22S 26°46' W 048°27'6511.4
2017-Sep-14 05:42S 25°42' W 048°15'310.5
2017-Sep-14 05:22S 25°38' W 048°16'512.5
2017-Sep-14 05:00S 25°35' W 048°19'101 2.9
2017-Sep-12 17:49S 24°39' W 046°47'3 9.9
2017-Sep-12 17:29S 24°37' W 046°44'6 9.9
2017-Sep-12 16:55S 24°33' W 046°39'410.1
2017-Sep-12 16:30S 24°31' W 046°36'510.1
2017-Sep-12 16:00S 24°26' W 046°33'510.4
2017-Sep-12 15:30S 24°22' W 046°31'510.6
2017-Sep-12 15:00S 24°17' W 046°28'510.6
2017-Sep-12 14:30S 24°12' W 046°26'510.7
2017-Sep-12 14:00S 24°07' W 046°24'611.1
2017-Sep-12 13:30S 24°02' W 046°21'4 8.2
2017-Sep-12 13:00S 23°59' W 046°18'5 0.9
2017-Sep-12 07:00S 23°55' W 046°21'0 0.0
2017-Sep-11 16:40S 23°55' W 046°21'0 2.3
2017-Sep-11 16:30S 23°55' W 046°21'3 7.0
2017-Sep-11 16:00S 23°58' W 046°18'3 6.3
2017-Sep-11 15:30S 24°00' W 046°20'510.2
2017-Sep-11 15:00S 24°05' W 046°22'612.0
2017-Sep-11 14:30S 24°11' W 046°21'510.4
2017-Sep-11 14:00S 24°15' W 046°19'1020.3
2017-Sep-11 13:30S 24°15' W 046°08'1121.3
2017-Sep-11 13:00S 24°16' W 045°56'1121.3
2017-Sep-11 12:30S 24°16' W 045°44'1221.5
2017-Sep-11 11:58S 24°14' W 045°31'1022.1
2017-Sep-11 11:30S 24°11' W 045°21'1122.4
2017-Sep-11 11:00S 24°08' W 045°09'1122.1
2017-Sep-11 10:30S 24°04' W 044°58'1122.4
2017-Sep-11 10:00S 24°01' W 044°46'9222.8
2017-Sep-11 06:00S 23°30' W 043°12'   050 / 301018.210.8 18.814.923.0
2017-Sep-08 06:00S 01°48' W 029°42'62426.0 130 / 281011.210.8 26.522.130.0
2017-Sep-07 06:00N 05°18' W 022°06'42117.5 170 / 221010.910.8 27.023.432.0
2017-Sep-06 06:00N 12°18' W 022°36'49320.5 070 / 41012.410.8 28.524.232.0
2017-Sep-05 06:00N 19°42' W 018°54'12220.3 010 / 221012.810.8 24.822.931.0
2017-Sep-05 00:00N 21°30' W 017°54'   360 / 161015.4 5.4 23.021.527.0

Dump ship's entire track history